Flight Track Log - Related Links

Times and Time Zones

All times are in EDT time to prevent confusion due to time zone crossing. See the JEX2505 flight status page for this flight to view local times or setup timezone preferences in your user account.

Time Position Orientation Groundspeed Altitude Reporting Facility
EDT Latitude Longitude Course Direction KTS MPH feet Rate Location/Type
01:28AM 35.1528 135.7396 29° Northeast  Level Estimated
01:29AM 35.2563 135.8111 29° Northeast  Level Estimated
01:30AM 35.3597 135.8828 29° Northeast  Level Estimated
01:31AM 35.4631 135.9547 30° Northeast  Level Estimated
01:32AM 35.5665 136.0268 30° Northeast  Level Estimated
01:33AM 35.6698 136.0990 30° Northeast  Level Estimated
01:34AM 35.7730 136.1714 30° Northeast  Level Estimated
01:35AM 35.8775 136.2450 30° Northeast  Level Estimated
01:36AM 35.9820 136.3187 30° Northeast  Level Estimated
01:37AM 36.0864 136.3926 30° Northeast  Level Estimated
01:38AM 36.1907 136.4667 30° Northeast  Level Estimated
01:39AM 36.2951 136.5410 30° Northeast  Level Estimated
01:40AM 36.3993 136.6155 30° Northeast  Level Estimated
01:41AM 36.5035 136.6902 30° Northeast  Level Estimated
01:42AM 36.6077 136.7651 30° Northeast  Level Estimated
01:43AM 36.7118 136.8402 30° Northeast  Level Estimated
01:44AM 36.8159 136.9155 30° Northeast  Level Estimated
01:45AM 36.9199 136.9910 30° Northeast  Level Estimated
01:46AM 37.0239 137.0668 30° Northeast  Level Estimated
01:47AM 37.1266 137.1418 30° Northeast  Level Estimated
01:48AM 37.2292 137.2170 30° Northeast  Level Estimated
01:49AM 37.3318 137.2924 30° Northeast  Level Estimated
01:50AM 37.4343 137.3680 30° Northeast  Level Estimated
01:51AM 37.5368 137.4438 30° Northeast  Level Estimated
01:52AM 37.6392 137.5199 30° Northeast  Level Estimated
01:53AM 37.7416 137.5961 30° Northeast  Level Estimated
01:54AM 37.8439 137.6726 31° Northeast  Level Estimated
01:55AM 37.9462 137.7493 31° Northeast  Level Estimated
01:56AM 38.0485 137.8261 31° Northeast  Level Estimated
01:57AM 38.1506 137.9032 31° Northeast  Level Estimated
01:58AM 38.2528 137.9805 31° Northeast  Level Estimated
01:59AM 38.3548 138.0581 31° Northeast  Level Estimated
02:00AM 38.4569 138.1358 31° Northeast  Level Estimated
02:01AM 38.5588 138.2138 31° Northeast  Level Estimated
02:02AM 38.6608 138.2920 31° Northeast  Level Estimated
02:03AM 38.7626 138.3704 31° Northeast  Level Estimated
02:04AM 38.8645 138.4490 31° Northeast  Level Estimated
02:05AM 38.9650 138.5269 31° Northeast  Level Estimated
02:06AM 39.0655 138.6051 31° Northeast  Level Estimated
02:07AM 39.1659 138.6834 31° Northeast  Level Estimated
02:08AM 39.2663 138.7620 31° Northeast  Level Estimated
02:09AM 39.3666 138.8408 31° Northeast  Level Estimated
02:10AM 39.4669 138.9198 31° Northeast  Level Estimated
02:11AM 39.5672 138.9991 31° Northeast  Level Estimated
02:12AM 39.6673 139.0786 31° Northeast  Level Estimated
02:13AM 39.7674 139.1583 31° Northeast  Level Estimated
02:14AM 39.8675 139.2383 32° Northeast  Level Estimated
02:15AM 39.9675 139.3185 32° Northeast  Level Estimated
02:16AM 40.0675 139.3989 32° Northeast  Level Estimated
02:17AM 40.1674 139.4795 32° Northeast  Level Estimated
02:18AM 40.2672 139.5604 32° Northeast  Level Estimated
02:19AM 40.3670 139.6416 32° Northeast  Level Estimated
02:20AM 40.4667 139.7229 32° Northeast  Level Estimated
02:21AM 40.5664 139.8046 32° Northeast  Level Estimated
02:22AM 40.6660 139.8864 32° Northeast  Level Estimated
02:23AM 40.7655 139.9685 32° Northeast  Level Estimated
02:24AM 40.8650 140.0509 32° Northeast  Level Estimated
02:25AM 40.9645 140.1335 32° Northeast  Level Estimated
02:26AM 41.0638 140.2163 32° Northeast  Level Estimated
02:27AM 41.1632 140.2994 32° Northeast  Level Estimated
02:28AM 41.2624 140.3828 32° Northeast  Level Estimated
02:29AM 41.3616 140.4664 32° Northeast  Level Estimated
02:30AM 41.4607 140.5502 32° Northeast  Level Estimated
02:31AM 41.5598 140.6344 32° Northeast  Level Estimated
02:32AM 41.6588 140.7187 32° Northeast  Level Estimated
02:33AM 41.7578 140.8033 33° Northeast  Level Estimated
02:34AM 41.8567 140.8882 33° Northeast  Level Estimated
02:35AM 41.9579 140.9755 33° Northeast  Level Estimated
02:36AM 42.0567 141.0609 33° Northeast  Level Estimated
02:37AM 42.1554 141.1466 33° Northeast  Level Estimated
02:38AM 42.2540 141.2326 33° Northeast  Level Estimated
02:39AM 42.3514 141.3178 33° Northeast  Level Estimated
02:40AM 42.4488 141.4033 33° Northeast  Level Estimated
02:41AM 42.5460 141.4890 33° Northeast  Level Estimated
02:42AM 42.6432 141.5750 33° Northeast  Level Estimated
02:43AM 42.7404 141.6613 33° Northeast  Level Estimated
02:44AM 42.7752 141.6923 33° Northeast  Level Estimated
02:45AM 42.7752 141.6923 North  Level Estimated
02:46AM 42.7752 141.6923 North  Level Estimated
02:47AM 42.7752 141.6923 North  Level Estimated
02:48AM 42.7752 141.6923 North  Level Estimated
02:49AM 42.7752 141.6923 North  Level Estimated
02:50AM 42.7752 141.6923 North  Level Estimated
02:51AM 42.7752 141.6923 North  Level Estimated
02:52AM 42.7752 141.6923 North  Level Estimated
02:53AM 42.7752 141.6923 North  Level Estimated
02:54AM 42.7752 141.6923 North  Level Estimated
02:55AM 42.7752 141.6923 North  Level Estimated
02:56AM 42.7752 141.6923 North  Level Estimated
02:57AM 42.7752 141.6923 North  Level Estimated
02:58AM 42.7752 141.6923 North  Level Estimated

Login

Don't have an account? Register now (free) for customized features, flight alerts, and more!